createdAt,value
2018-06-15T00:01:42.379Z,15.40
2018-06-15T00:04:12.627Z,15.40
2018-06-15T00:06:41.938Z,15.30
2018-06-15T00:09:10.978Z,15.30
2018-06-15T00:11:40.949Z,15.30
2018-06-15T00:14:10.554Z,15.20
2018-06-15T00:16:41.268Z,15.20
2018-06-15T00:19:10.502Z,15.10
2018-06-15T00:21:39.686Z,15.10
2018-06-15T00:24:09.811Z,15.10
2018-06-15T00:26:39.645Z,15.00
2018-06-15T00:31:38.867Z,15.00
2018-06-15T00:34:07.953Z,15.00
2018-06-15T00:36:40.085Z,14.90
2018-06-15T00:39:11.450Z,14.90
2018-06-15T00:41:43.838Z,15.00
2018-06-15T00:44:13.885Z,15.00
2018-06-15T00:46:43.248Z,15.00
2018-06-15T00:49:12.522Z,15.00
2018-06-15T00:51:42.747Z,15.00
2018-06-15T00:54:12.654Z,14.90
2018-06-15T00:56:54.048Z,15.00
2018-06-15T00:59:23.962Z,15.00
2018-06-15T01:01:54.555Z,15.00
2018-06-15T01:04:23.776Z,14.90
2018-06-15T01:06:52.982Z,14.80
2018-06-15T01:09:25.833Z,14.80
2018-06-15T01:11:55.676Z,14.80
2018-06-15T01:14:25.789Z,14.70
2018-06-15T01:16:55.054Z,14.60
2018-06-15T01:19:25.272Z,14.60
2018-06-15T01:21:54.498Z,14.50
2018-06-15T01:24:23.843Z,14.40
2018-06-15T01:26:55.193Z,14.30
2018-06-15T01:29:24.423Z,14.30
2018-06-15T01:31:53.579Z,14.20
2018-06-15T01:34:22.784Z,14.10
2018-06-15T01:36:52.544Z,14.10
2018-06-15T01:39:22.728Z,14.00
2018-06-15T01:41:53.103Z,13.90
2018-06-15T01:44:24.583Z,13.90
2018-06-15T01:46:53.930Z,13.80
2018-06-15T01:49:24.117Z,13.70
2018-06-15T01:51:53.288Z,13.70
2018-06-15T01:54:23.511Z,13.60
2018-06-15T01:56:53.566Z,13.60
2018-06-15T02:01:51.469Z,13.40
2018-06-15T02:04:20.635Z,13.30
2018-06-15T02:06:50.733Z,13.30
2018-06-15T02:09:19.843Z,13.30
2018-06-15T02:11:49.728Z,13.30
2018-06-15T02:14:19.927Z,13.30
2018-06-15T02:16:50.004Z,13.30
2018-06-15T02:19:20.780Z,13.20
2018-06-15T02:21:49.968Z,13.20
2018-06-15T02:24:19.230Z,13.20
2018-06-15T02:26:49.572Z,13.20
2018-06-15T02:29:19.634Z,13.20
2018-06-15T02:31:48.893Z,13.20
2018-06-15T02:34:18.137Z,13.20
2018-06-15T02:36:47.280Z,13.30
2018-06-15T02:39:18.354Z,13.30
2018-06-15T02:41:48.414Z,13.40
2018-06-15T02:44:18.560Z,13.40
2018-06-15T02:46:48.814Z,13.50
2018-06-15T02:49:18.456Z,13.50
2018-06-15T02:51:47.616Z,13.60
2018-06-15T02:54:17.298Z,13.70
2018-06-15T02:56:46.610Z,13.70
2018-06-15T02:59:15.917Z,13.80
2018-06-15T03:01:46.854Z,13.90
2018-06-15T03:04:17.730Z,13.90
2018-06-15T03:06:47.752Z,13.90
2018-06-15T03:09:16.877Z,13.90
2018-06-15T03:11:52.706Z,13.90
2018-06-15T03:14:22.056Z,13.90
2018-06-15T03:16:51.254Z,13.90
2018-06-15T03:19:20.565Z,13.80
2018-06-15T03:21:49.738Z,13.80
2018-06-15T03:24:18.912Z,13.80
2018-06-15T03:26:49.216Z,13.80
2018-06-15T03:29:18.580Z,13.70
2018-06-15T03:31:48.166Z,13.70
2018-06-15T03:34:18.187Z,13.60
2018-06-15T03:36:47.359Z,13.60
2018-06-15T03:39:16.614Z,13.60
2018-06-15T03:41:46.714Z,13.60
2018-06-15T03:44:16.608Z,13.60
2018-06-15T03:46:45.861Z,13.60
2018-06-15T03:49:15.205Z,13.60
2018-06-15T03:51:45.508Z,13.60
2018-06-15T03:54:16.289Z,13.60
2018-06-15T03:56:45.373Z,13.60
2018-06-15T03:59:14.506Z,13.50
2018-06-15T04:01:44.120Z,13.50
2018-06-15T04:04:13.316Z,13.40
2018-06-15T04:06:43.492Z,13.40
2018-06-15T04:09:12.916Z,13.40
2018-06-15T04:11:42.854Z,13.40
2018-06-15T04:14:11.946Z,13.40
2018-06-15T04:16:42.346Z,13.40
2018-06-15T04:19:11.539Z,13.40
2018-06-15T04:24:11.392Z,13.60
2018-06-15T04:26:41.897Z,13.60
2018-06-15T04:29:11.125Z,13.70
2018-06-15T04:31:41.092Z,13.70
2018-06-15T04:34:10.160Z,13.70
2018-06-15T04:36:39.689Z,13.80
2018-06-15T04:39:10.903Z,13.80
2018-06-15T04:41:40.834Z,13.90
2018-06-15T04:44:09.948Z,13.90
2018-06-15T04:46:40.818Z,14.00
2018-06-15T04:49:11.163Z,14.00
2018-06-15T04:51:40.495Z,14.10
2018-06-15T04:54:10.336Z,14.10
2018-06-15T04:56:39.525Z,14.10
2018-06-15T04:59:08.657Z,14.20
2018-06-15T05:01:38.854Z,14.20
2018-06-15T05:04:08.104Z,14.20
2018-06-15T05:06:37.321Z,14.30
2018-06-15T05:09:08.728Z,14.60
2018-06-15T05:11:38.779Z,14.90
2018-06-15T05:14:08.209Z,15.20
2018-06-15T05:16:39.093Z,15.30
2018-06-15T05:19:08.272Z,15.50
2018-06-15T05:21:37.398Z,15.60
2018-06-15T05:24:07.440Z,15.80
2018-06-15T05:26:36.644Z,16.00
2018-06-15T05:29:06.003Z,16.20
2018-06-15T05:31:36.499Z,16.30
2018-06-15T05:34:05.923Z,16.20
2018-06-15T05:36:35.197Z,16.40
2018-06-15T05:39:10.564Z,16.30
2018-06-15T05:41:41.070Z,16.10
2018-06-15T05:44:11.236Z,15.90
2018-06-15T05:46:40.491Z,15.80
2018-06-15T05:49:09.678Z,15.70
2018-06-15T05:51:38.966Z,15.60
2018-06-15T05:54:08.279Z,15.60
2018-06-15T05:56:37.598Z,15.60
2018-06-15T05:59:07.551Z,15.60
2018-06-15T06:01:36.814Z,15.70
2018-06-15T06:06:36.580Z,15.70
2018-06-15T06:09:08.402Z,15.70
2018-06-15T06:11:38.520Z,15.80
2018-06-15T06:14:07.817Z,15.80
2018-06-15T06:16:38.264Z,15.90
2018-06-15T06:19:09.030Z,15.90
2018-06-15T06:21:40.645Z,16.00
2018-06-15T06:24:10.696Z,16.10
2018-06-15T06:26:39.821Z,16.20
2018-06-15T06:29:09.012Z,16.20
2018-06-15T06:31:39.069Z,16.20
2018-06-15T06:34:08.809Z,16.20
2018-06-15T06:39:11.001Z,16.40
2018-06-15T06:41:40.353Z,16.40
2018-06-15T06:44:10.810Z,16.50
2018-06-15T06:46:40.627Z,16.60
2018-06-15T06:49:09.668Z,16.70
2018-06-15T06:51:38.837Z,16.70
2018-06-15T06:54:09.098Z,16.80
2018-06-15T06:56:38.255Z,16.90
2018-06-15T06:59:08.354Z,17.00
2018-06-15T07:01:37.574Z,17.10
2018-06-15T07:04:06.954Z,17.10
2018-06-15T07:06:37.229Z,17.20
2018-06-15T07:09:08.365Z,17.30
2018-06-15T07:11:38.494Z,17.30
2018-06-15T07:14:08.808Z,17.40
2018-06-15T07:16:39.050Z,17.50
2018-06-15T07:19:08.399Z,17.60
2018-06-15T07:21:37.902Z,17.70
2018-06-15T07:24:06.969Z,17.80
2018-06-15T07:26:36.438Z,17.80
2018-06-15T07:29:05.546Z,17.80
2018-06-15T07:31:35.964Z,17.90
2018-06-15T07:34:05.063Z,18.00
2018-06-15T07:36:34.260Z,18.20
2018-06-15T07:39:04.797Z,18.30
2018-06-15T07:41:34.154Z,18.40
2018-06-15T07:44:04.305Z,18.50
2018-06-15T07:46:33.439Z,18.60
2018-06-15T07:49:02.526Z,18.70
2018-06-15T07:51:31.635Z,18.80
2018-06-15T07:54:02.306Z,18.80
2018-06-15T07:56:32.333Z,19.00
2018-06-15T07:59:02.091Z,19.00
2018-06-15T08:01:31.486Z,19.10
2018-06-15T08:04:05.407Z,19.20
2018-06-15T08:06:34.598Z,19.30
2018-06-15T08:09:07.237Z,19.30
2018-06-15T08:11:37.925Z,19.40
2018-06-15T08:14:09.261Z,19.50
2018-06-15T08:16:38.478Z,19.50
2018-06-15T08:19:08.621Z,19.60
2018-06-15T08:21:37.896Z,19.50
2018-06-15T08:24:08.206Z,19.60
2018-06-15T08:26:37.714Z,19.60
2018-06-15T08:29:06.796Z,19.50
2018-06-15T08:31:37.409Z,19.50
2018-06-15T08:34:07.516Z,19.50
2018-06-15T08:36:36.743Z,19.70
2018-06-15T08:41:37.004Z,19.90
2018-06-15T08:44:07.901Z,20.00
2018-06-15T08:46:38.635Z,20.20
2018-06-15T08:49:07.805Z,20.30
2018-06-15T08:51:36.948Z,20.30
2018-06-15T08:54:07.153Z,20.40
2018-06-15T08:56:37.239Z,20.50
2018-06-15T08:59:06.486Z,20.70
2018-06-15T09:01:37.841Z,21.00
2018-06-15T09:04:07.560Z,21.10
2018-06-15T09:06:37.162Z,21.30
2018-06-15T09:09:07.719Z,21.40
2018-06-15T09:11:37.762Z,21.50
2018-06-15T09:14:07.197Z,21.60
2018-06-15T09:16:36.456Z,21.60
2018-06-15T09:19:06.519Z,21.70
2018-06-15T09:21:38.063Z,21.90
2018-06-15T09:24:07.316Z,22.00
2018-06-15T09:26:36.889Z,22.10
2018-06-15T09:29:07.085Z,22.20
2018-06-15T09:31:37.994Z,22.30
2018-06-15T09:34:07.772Z,22.40
2018-06-15T09:39:07.513Z,22.60
2018-06-15T09:41:37.814Z,22.60
2018-06-15T09:44:06.902Z,22.90
2018-06-15T09:46:36.126Z,23.10
2018-06-15T09:49:05.641Z,23.30
2018-06-15T09:54:03.501Z,23.80
2018-06-15T09:56:32.660Z,24.00
2018-06-15T09:59:01.800Z,24.20
2018-06-15T10:01:31.701Z,24.00
2018-06-15T10:04:01.942Z,23.80
2018-06-15T10:06:31.098Z,23.80
2018-06-15T10:09:00.315Z,23.60
2018-06-15T10:11:31.145Z,23.40
2018-06-15T10:14:00.215Z,23.30
2018-06-15T10:16:31.949Z,23.50
2018-06-15T10:19:02.145Z,23.40
2018-06-15T10:21:31.322Z,23.40
2018-06-15T10:24:00.407Z,23.60
2018-06-15T10:26:29.883Z,23.90
2018-06-15T10:29:00.411Z,24.20
2018-06-15T10:31:29.643Z,24.40
2018-06-15T10:33:58.840Z,24.80
2018-06-15T10:36:28.043Z,24.80
2018-06-15T10:38:57.610Z,24.50
2018-06-15T10:41:28.037Z,24.50
2018-06-15T10:43:59.505Z,24.20
2018-06-15T10:46:28.694Z,24.20
2018-06-15T10:48:57.915Z,24.10
2018-06-15T10:51:27.220Z,24.30
2018-06-15T10:53:57.570Z,24.40
2018-06-15T10:56:28.460Z,24.60
2018-06-15T10:58:57.798Z,24.70
2018-06-15T11:01:30.675Z,24.80
2018-06-15T11:03:59.926Z,25.00
2018-06-15T11:06:29.471Z,25.20
2018-06-15T11:08:59.610Z,25.30
2018-06-15T11:11:28.804Z,25.60
2018-06-15T11:13:58.738Z,25.80
2018-06-15T11:16:28.129Z,26.00
2018-06-15T11:18:59.238Z,26.20
2018-06-15T11:21:29.284Z,26.30
2018-06-15T11:23:59.403Z,26.30
2018-06-15T11:26:29.622Z,26.40
2018-06-15T11:28:58.847Z,26.70
2018-06-15T11:31:28.242Z,27.00
2018-06-15T11:33:57.730Z,27.40
2018-06-15T11:36:26.947Z,27.50
2018-06-15T11:38:58.146Z,27.60
2018-06-15T11:41:27.763Z,27.80
2018-06-15T11:43:56.865Z,27.80
2018-06-15T11:46:26.439Z,27.80
2018-06-15T11:48:55.756Z,27.90
2018-06-15T11:51:26.635Z,28.00
2018-06-15T11:53:56.784Z,28.30
2018-06-15T11:56:26.173Z,28.60
2018-06-15T11:58:55.283Z,28.80
2018-06-15T12:01:24.388Z,28.90
2018-06-15T12:03:54.285Z,28.70
2018-06-15T12:06:23.764Z,28.50
2018-06-15T12:08:54.008Z,28.30
2018-06-15T12:11:23.756Z,28.30
2018-06-15T12:13:54.017Z,28.30
2018-06-15T12:16:23.941Z,28.40
2018-06-15T12:18:53.449Z,28.50
2018-06-15T12:21:24.398Z,28.60
2018-06-15T12:23:54.657Z,28.70
2018-06-15T12:28:54.572Z,28.80
2018-06-15T12:31:24.962Z,29.00
2018-06-15T12:36:24.572Z,28.80
2018-06-15T12:38:53.928Z,28.70
2018-06-15T12:41:23.039Z,28.70
2018-06-15T12:43:52.577Z,28.70
2018-06-15T12:46:23.206Z,28.60
2018-06-15T12:48:52.454Z,28.80
2018-06-15T12:51:21.756Z,29.00
2018-06-15T12:53:50.764Z,29.30
2018-06-15T12:56:20.776Z,29.60
2018-06-15T12:58:49.855Z,30.00
2018-06-15T13:01:20.346Z,29.80
2018-06-15T13:03:51.428Z,29.20
2018-06-15T13:06:20.978Z,29.10
2018-06-15T13:08:51.079Z,29.00
2018-06-15T13:11:21.271Z,28.60
2018-06-15T13:13:50.437Z,28.70
2018-06-15T13:18:48.305Z,28.80
2018-06-15T13:21:17.670Z,29.10
2018-06-15T13:23:46.991Z,29.20
2018-06-15T13:26:19.250Z,29.50
2018-06-15T13:28:48.438Z,29.90
2018-06-15T13:31:21.507Z,29.70
2018-06-15T13:33:52.192Z,29.60
2018-06-15T13:36:21.283Z,29.50
2018-06-15T13:38:50.377Z,29.20
2018-06-15T13:41:19.743Z,28.90
2018-06-15T13:43:48.824Z,28.70
2018-06-15T13:48:46.904Z,28.50
2018-06-15T13:51:16.065Z,28.80
2018-06-15T13:53:46.194Z,29.10
2018-06-15T13:56:15.474Z,28.90
2018-06-15T13:58:45.596Z,28.90
2018-06-15T14:01:15.623Z,28.90
2018-06-15T14:03:44.822Z,29.10
2018-06-15T14:06:14.808Z,29.30
2018-06-15T14:08:44.027Z,29.50
2018-06-15T14:11:14.257Z,29.50
2018-06-15T14:13:44.310Z,29.40
2018-06-15T14:16:13.365Z,29.20
2018-06-15T14:18:43.518Z,29.40
2018-06-15T14:21:12.766Z,29.70
2018-06-15T14:23:41.829Z,29.80
2018-06-15T14:26:11.573Z,29.70
2018-06-15T14:28:40.796Z,29.70
2018-06-15T14:31:09.926Z,29.50
2018-06-15T14:33:39.842Z,29.60
2018-06-15T14:36:09.329Z,29.40
2018-06-15T14:38:38.375Z,29.00
2018-06-15T14:41:09.176Z,28.70
2018-06-15T14:43:38.431Z,28.50
2018-06-15T14:46:07.500Z,28.30
2018-06-15T14:48:36.928Z,28.20
2018-06-15T14:51:06.193Z,28.30
2018-06-15T14:53:35.338Z,28.50
2018-06-15T14:56:05.485Z,28.60
2018-06-15T14:58:35.855Z,28.60
2018-06-15T15:01:05.996Z,28.50
2018-06-15T15:03:36.133Z,28.30
2018-06-15T15:06:05.347Z,28.30
2018-06-15T15:08:34.619Z,28.30
2018-06-15T15:11:04.747Z,28.40
2018-06-15T15:13:33.846Z,29.20
2018-06-15T15:16:02.996Z,30.40
2018-06-15T15:18:34.807Z,31.90
2018-06-15T15:21:04.505Z,33.00
2018-06-15T15:23:33.865Z,33.60
2018-06-15T15:26:04.229Z,34.20
2018-06-15T15:28:34.191Z,33.50
2018-06-15T15:31:03.519Z,33.20
2018-06-15T15:33:34.132Z,32.40
2018-06-15T15:36:03.628Z,31.50
2018-06-15T15:38:32.687Z,30.70
2018-06-15T15:41:01.900Z,29.90
2018-06-15T15:43:31.088Z,29.10
2018-06-15T15:46:01.277Z,29.10
2018-06-15T15:48:32.181Z,29.10
2018-06-15T15:51:02.633Z,29.10
2018-06-15T15:53:33.286Z,29.40
2018-06-15T15:56:02.472Z,29.60
2018-06-15T15:58:32.556Z,30.60
2018-06-15T16:01:05.242Z,31.70
2018-06-15T16:03:34.407Z,32.20
2018-06-15T16:06:03.616Z,33.10
2018-06-15T16:08:34.308Z,33.80
2018-06-15T16:11:03.391Z,33.60
2018-06-15T16:13:33.478Z,33.70
2018-06-15T16:16:02.971Z,34.00
2018-06-15T16:18:33.673Z,34.50
2018-06-15T16:21:05.774Z,34.70
2018-06-15T16:23:36.098Z,35.20
2018-06-15T16:26:06.498Z,36.00
2018-06-15T16:28:37.257Z,36.60
2018-06-15T16:31:06.376Z,36.90
2018-06-15T16:33:38.992Z,36.40
2018-06-15T16:36:10.018Z,36.20
2018-06-15T16:38:39.924Z,36.10
2018-06-15T16:41:09.085Z,35.90
2018-06-15T16:43:38.263Z,35.20
2018-06-15T16:46:08.270Z,34.30
2018-06-15T16:48:37.353Z,33.50
2018-06-15T16:51:06.759Z,32.60
2018-06-15T16:53:36.078Z,32.10
2018-06-15T16:56:06.395Z,31.70
2018-06-15T16:58:37.228Z,32.20
2018-06-15T17:01:07.253Z,32.60
2018-06-15T17:03:36.458Z,33.30
2018-06-15T17:06:06.498Z,33.10
2018-06-15T17:08:35.839Z,33.00
2018-06-15T17:11:04.938Z,32.60
2018-06-15T17:13:34.033Z,32.40
2018-06-15T17:16:10.076Z,32.20
2018-06-15T17:18:40.022Z,31.60
2018-06-15T17:21:09.200Z,30.40
2018-06-15T17:23:38.329Z,29.30
2018-06-15T17:26:07.445Z,28.40
2018-06-15T17:28:36.481Z,27.90
2018-06-15T17:31:06.394Z,27.70
2018-06-15T17:33:37.386Z,27.80
2018-06-15T17:36:07.312Z,28.20
2018-06-15T17:38:36.476Z,28.20
2018-06-15T17:41:05.861Z,27.90
2018-06-15T17:43:34.928Z,27.80
2018-06-15T17:46:05.111Z,27.80
2018-06-15T17:48:34.394Z,27.70
2018-06-15T17:51:03.633Z,27.60
2018-06-15T17:53:32.741Z,27.30
2018-06-15T17:56:01.833Z,27.10
2018-06-15T17:58:31.081Z,26.90
2018-06-15T18:01:02.072Z,26.70
2018-06-15T18:03:31.240Z,26.30
2018-06-15T18:06:02.474Z,26.00
2018-06-15T18:08:32.097Z,25.80
2018-06-15T18:11:01.150Z,25.60
2018-06-15T18:13:30.424Z,25.40
2018-06-15T18:15:59.593Z,25.30
2018-06-15T18:18:28.852Z,25.20
2018-06-15T18:20:59.024Z,25.10
2018-06-15T18:28:26.291Z,25.00
2018-06-15T18:30:55.475Z,24.90
2018-06-15T18:33:26.479Z,24.70
2018-06-15T18:35:57.472Z,24.60
2018-06-15T18:38:27.389Z,24.40
2018-06-15T18:40:57.392Z,24.30
2018-06-15T18:43:26.548Z,24.20
2018-06-15T18:45:55.708Z,24.10
2018-06-15T18:48:25.179Z,24.00
2018-06-15T18:50:56.193Z,23.90
2018-06-15T18:53:26.496Z,23.80
2018-06-15T18:55:55.955Z,23.70
2018-06-15T18:58:26.156Z,23.60
2018-06-15T19:00:57.127Z,23.50
2018-06-15T19:03:26.300Z,23.40
2018-06-15T19:05:55.394Z,23.30
2018-06-15T19:08:26.905Z,23.30
2018-06-15T19:10:56.931Z,23.30
2018-06-15T19:13:26.621Z,23.20
2018-06-15T19:15:57.395Z,23.10
2018-06-15T19:18:26.635Z,23.00
2018-06-15T19:20:56.861Z,22.90
2018-06-15T19:23:26.153Z,22.70
2018-06-15T19:25:55.969Z,22.60
2018-06-15T19:28:25.113Z,22.50
2018-06-15T19:30:54.160Z,22.40
2018-06-15T19:33:23.355Z,22.20
2018-06-15T19:35:52.730Z,22.20
2018-06-15T19:38:23.145Z,22.10
2018-06-15T19:40:53.427Z,21.90
2018-06-15T19:43:23.500Z,21.80
2018-06-15T19:45:52.668Z,21.60
2018-06-15T19:48:21.920Z,21.50
2018-06-15T19:50:51.204Z,21.30
2018-06-15T19:53:22.052Z,21.20
2018-06-15T19:55:51.350Z,21.00
2018-06-15T19:58:20.570Z,20.80
2018-06-15T20:00:50.104Z,20.70
2018-06-15T20:03:21.256Z,20.70
2018-06-15T20:05:50.423Z,20.60
2018-06-15T20:08:20.159Z,20.50
2018-06-15T20:10:50.187Z,20.40
2018-06-15T20:13:20.188Z,20.30
2018-06-15T20:15:50.288Z,20.30
2018-06-15T20:18:20.343Z,20.20
2018-06-15T20:20:49.400Z,20.10
2018-06-15T20:23:19.482Z,20.10
2018-06-15T20:25:48.657Z,20.00
2018-06-15T20:28:18.817Z,20.00
2018-06-15T20:30:48.097Z,19.90
2018-06-15T20:33:20.260Z,19.90
2018-06-15T20:35:49.317Z,19.90
2018-06-15T20:38:18.483Z,19.80
2018-06-15T20:40:47.781Z,19.80
2018-06-15T20:43:16.948Z,19.70
2018-06-15T20:45:46.076Z,19.60
2018-06-15T20:50:44.930Z,19.50
2018-06-15T20:53:15.005Z,19.50
2018-06-15T20:55:44.196Z,19.50
2018-06-15T20:58:14.451Z,19.40
2018-06-15T21:00:44.379Z,19.30
2018-06-15T21:03:14.457Z,19.30
2018-06-15T21:05:44.538Z,19.20
2018-06-15T21:08:13.746Z,19.10
2018-06-15T21:10:42.807Z,19.00
2018-06-15T21:13:12.980Z,19.00
2018-06-15T21:15:43.847Z,18.90
2018-06-15T21:18:15.000Z,18.80
2018-06-15T21:20:46.231Z,18.70
2018-06-15T21:23:15.408Z,18.60
2018-06-15T21:25:44.584Z,18.50
2018-06-15T21:28:14.524Z,18.40
2018-06-15T21:33:13.374Z,18.30
2018-06-15T21:35:42.511Z,18.20
2018-06-15T21:38:11.650Z,18.20
2018-06-15T21:40:42.798Z,18.10
2018-06-15T21:43:12.695Z,18.10
2018-06-15T21:48:11.078Z,18.00
2018-06-15T21:50:40.658Z,17.90
2018-06-15T21:53:09.769Z,17.90
2018-06-15T21:55:39.412Z,17.80
2018-06-15T21:58:08.481Z,17.70
2018-06-15T22:00:37.602Z,17.70
2018-06-15T22:03:06.763Z,17.60
2018-06-15T22:05:37.004Z,17.50
2018-06-15T22:08:06.198Z,17.50
2018-06-15T22:10:36.123Z,17.40
2018-06-15T22:13:06.252Z,17.40
2018-06-15T22:15:35.366Z,17.30
2018-06-15T22:18:04.939Z,17.20
2018-06-15T22:20:34.113Z,17.20
2018-06-15T22:23:03.170Z,17.10
2018-06-15T22:25:32.355Z,17.10
2018-06-15T22:28:02.356Z,17.10
2018-06-15T22:30:32.816Z,17.00
2018-06-15T22:33:01.964Z,17.00
2018-06-15T22:35:31.205Z,16.90
2018-06-15T22:38:01.302Z,16.90
2018-06-15T22:40:32.186Z,16.80
2018-06-15T22:43:02.100Z,16.80
2018-06-15T22:45:31.403Z,16.70
2018-06-15T22:48:01.768Z,16.70
2018-06-15T22:50:32.015Z,16.60
2018-06-15T22:53:01.276Z,16.60
2018-06-15T22:55:31.243Z,16.60
2018-06-15T22:58:00.390Z,16.50
2018-06-15T23:00:31.007Z,16.50
2018-06-15T23:03:01.099Z,16.50
2018-06-15T23:05:31.572Z,16.40
2018-06-15T23:08:00.834Z,16.40
2018-06-15T23:10:31.943Z,16.40
2018-06-15T23:13:01.178Z,16.40
2018-06-15T23:15:31.297Z,16.30
2018-06-15T23:18:00.635Z,16.30
2018-06-15T23:20:29.805Z,16.30
2018-06-15T23:22:58.892Z,16.30
2018-06-15T23:25:28.250Z,16.20
2018-06-15T23:27:57.400Z,16.20
2018-06-15T23:30:26.828Z,16.20
2018-06-15T23:32:55.945Z,16.10
2018-06-15T23:35:26.127Z,16.10
2018-06-15T23:37:55.465Z,16.10
2018-06-15T23:40:24.638Z,16.10
2018-06-15T23:42:54.447Z,16.10
2018-06-15T23:45:24.335Z,16.10
2018-06-15T23:47:55.440Z,16.00
2018-06-15T23:50:24.708Z,16.00
2018-06-15T23:52:54.883Z,16.00
2018-06-15T23:55:24.838Z,15.90
2018-06-15T23:57:54.964Z,15.90
